This is the latest recevied weather packets stored in our database for station/object WMKN. If no packets are shown the sender has not sent any weather packets the latest 10 day(s).
| Time | Temp. | Humidity | Pressure | Rain* | Wind** | Luminosity | Snow |
|---|---|---|---|---|---|---|---|
| 1777641036 | 30° C | 79% | 1009 hPa | - | - | - | - |
| 1777637426 | 30° C | 79% | 1008 hPa | - | - | - | - |
| 1777633826 | 30.56° C | 74% | 1008 hPa | - | - | - | - |
| 1777630234 | 31.67° C | 70% | 1007 hPa | - | - | - | - |
| 1777626639 | 31.67° C | 70% | 1007 hPa | - | - | - | - |
| 1777623028 | 33.89° C | 59% | 1007 hPa | - | - | - | - |
| 1777619425 | 32.78° C | 62% | 1008 hPa | - | - | - | - |
| 1777615831 | 32.78° C | 70% | 1009 hPa | - | - | - | - |
| 1777612239 | 32.78° C | 66% | 1010 hPa | - | - | - | - |
| 1777608625 | 32.78° C | 66% | 1011 hPa | - | - | - | - |
| 1777605025 | 31.67° C | 70% | 1011 hPa | - | - | - | - |
| 1777601425 | 30° C | 79% | 1011 hPa | - | - | - | - |
| 1777597839 | 27.78° C | 88% | 1010 hPa | - | - | - | - |
| 1777594221 | 26.67° C | 88% | 1009 hPa | - | - | - | - |
| 1777590625 | 25.56° C | 94% | 1009 hPa | - | - | - | - |
| 1777587024 | 26.67° C | 94% | 1008 hPa | - | - | - | - |
| 1777583438 | 26.67° C | 94% | 1008 hPa | - | - | - | - |
| 1777579825 | 27.78° C | 88% | 1008 hPa | - | - | - | - |
| 1777576224 | 27.78° C | 88% | 1009 hPa | - | - | - | - |
| 1777572624 | 28.89° C | 83% | 1010 hPa | - | - | - | - |
| 1777569036 | 28.89° C | 79% | 1010 hPa | - | - | - | - |
| 1777565424 | 28.89° C | 79% | 1011 hPa | - | - | - | - |
| 1777561825 | 30° C | 79% | 1010 hPa | - | - | - | - |
| 1777558224 | 30° C | 79% | 1010 hPa | - | - | - | - |
| 1777554636 | 30.56° C | 74% | 1009 hPa | - | - | - | - |
* Rain since midnight (hover to see other rain measurements)
** Current wind speed in m/s (hover to see current wind gust speed)